sensor_id;sensor_type;location;lat;lon;timestamp;P1;durP1;ratioP1;P2;durP2;ratioP2
75718;SDS011;64340;48.534;-3.036;2024-03-25T00:00:33;4.55;;;1.75;;
75718;SDS011;64340;48.534;-3.036;2024-03-25T00:02:59;5.93;;;1.95;;
75718;SDS011;64340;48.534;-3.036;2024-03-25T00:05:25;6.22;;;1.70;;
75718;SDS011;64340;48.534;-3.036;2024-03-25T00:07:51;3.80;;;1.70;;
75718;SDS011;64340;48.534;-3.036;2024-03-25T00:10:17;5.07;;;1.50;;
75718;SDS011;64340;48.534;-3.036;2024-03-25T00:12:45;4.43;;;1.80;;
75718;SDS011;64340;48.534;-3.036;2024-03-25T00:15:12;2.95;;;1.35;;
75718;SDS011;64340;48.534;-3.036;2024-03-25T00:17:38;4.70;;;1.60;;
75718;SDS011;64340;48.534;-3.036;2024-03-25T00:20:03;4.00;;;1.67;;
75718;SDS011;64340;48.534;-3.036;2024-03-25T00:22:34;3.78;;;1.90;;
75718;SDS011;64340;48.534;-3.036;2024-03-25T00:24:59;4.72;;;1.48;;
75718;SDS011;64340;48.534;-3.036;2024-03-25T00:27:25;2.80;;;1.33;;
75718;SDS011;64340;48.534;-3.036;2024-03-25T00:29:51;4.00;;;1.10;;
75718;SDS011;64340;48.534;-3.036;2024-03-25T00:32:17;3.10;;;1.20;;
75718;SDS011;64340;48.534;-3.036;2024-03-25T00:34:42;3.58;;;1.35;;
75718;SDS011;64340;48.534;-3.036;2024-03-25T00:37:08;3.88;;;1.50;;
75718;SDS011;64340;48.534;-3.036;2024-03-25T00:39:34;3.65;;;1.40;;
75718;SDS011;64340;48.534;-3.036;2024-03-25T00:42:00;3.10;;;1.50;;
75718;SDS011;64340;48.534;-3.036;2024-03-25T00:44:26;2.40;;;1.20;;
75718;SDS011;64340;48.534;-3.036;2024-03-25T00:46:52;3.13;;;1.38;;
75718;SDS011;64340;48.534;-3.036;2024-03-25T00:49:18;2.60;;;1.30;;
75718;SDS011;64340;48.534;-3.036;2024-03-25T00:51:43;3.30;;;1.25;;
75718;SDS011;64340;48.534;-3.036;2024-03-25T00:54:09;3.38;;;1.45;;
75718;SDS011;64340;48.534;-3.036;2024-03-25T00:56:35;2.42;;;1.23;;
75718;SDS011;64340;48.534;-3.036;2024-03-25T00:59:01;4.57;;;1.38;;
75718;SDS011;64340;48.534;-3.036;2024-03-25T01:01:34;3.47;;;1.13;;
75718;SDS011;64340;48.534;-3.036;2024-03-25T01:04:03;4.07;;;1.15;;
75718;SDS011;64340;48.534;-3.036;2024-03-25T01:06:29;3.33;;;1.20;;
75718;SDS011;64340;48.534;-3.036;2024-03-25T01:08:55;2.65;;;1.20;;
75718;SDS011;64340;48.534;-3.036;2024-03-25T01:11:21;3.08;;;1.10;;
75718;SDS011;64340;48.534;-3.036;2024-03-25T01:13:47;3.03;;;1.02;;
75718;SDS011;64340;48.534;-3.036;2024-03-25T01:16:13;2.85;;;1.10;;
75718;SDS011;64340;48.534;-3.036;2024-03-25T01:18:38;3.35;;;1.25;;
75718;SDS011;64340;48.534;-3.036;2024-03-25T01:21:04;3.85;;;1.30;;
75718;SDS011;64340;48.534;-3.036;2024-03-25T01:23:30;3.85;;;1.27;;
75718;SDS011;64340;48.534;-3.036;2024-03-25T01:25:56;2.92;;;1.10;;
75718;SDS011;64340;48.534;-3.036;2024-03-25T01:28:22;2.97;;;1.40;;
75718;SDS011;64340;48.534;-3.036;2024-03-25T01:30:48;2.67;;;1.10;;
75718;SDS011;64340;48.534;-3.036;2024-03-25T01:33:14;2.97;;;1.27;;
75718;SDS011;64340;48.534;-3.036;2024-03-25T01:35:40;3.60;;;1.00;;
75718;SDS011;64340;48.534;-3.036;2024-03-25T01:38:06;1.90;;;1.00;;
75718;SDS011;64340;48.534;-3.036;2024-03-25T01:40:32;3.20;;;1.10;;
75718;SDS011;64340;48.534;-3.036;2024-03-25T01:43:01;3.17;;;1.10;;
75718;SDS011;64340;48.534;-3.036;2024-03-25T01:45:29;3.15;;;1.00;;
75718;SDS011;64340;48.534;-3.036;2024-03-25T01:48:00;3.13;;;0.90;;
75718;SDS011;64340;48.534;-3.036;2024-03-25T01:50:28;3.03;;;1.20;;
75718;SDS011;64340;48.534;-3.036;2024-03-25T01:52:54;3.00;;;1.10;;
75718;SDS011;64340;48.534;-3.036;2024-03-25T01:55:21;2.80;;;0.85;;
75718;SDS011;64340;48.534;-3.036;2024-03-25T01:57:53;3.65;;;0.70;;
75718;SDS011;64340;48.534;-3.036;2024-03-25T02:00:19;2.10;;;0.90;;
75718;SDS011;64340;48.534;-3.036;2024-03-25T02:02:46;3.40;;;0.90;;
75718;SDS011;64340;48.534;-3.036;2024-03-25T02:05:13;2.47;;;1.00;;
75718;SDS011;64340;48.534;-3.036;2024-03-25T02:07:43;4.20;;;1.10;;
75718;SDS011;64340;48.534;-3.036;2024-03-25T02:10:09;2.83;;;1.10;;
75718;SDS011;64340;48.534;-3.036;2024-03-25T02:12:36;3.45;;;1.10;;
75718;SDS011;64340;48.534;-3.036;2024-03-25T02:15:04;2.15;;;0.70;;
75718;SDS011;64340;48.534;-3.036;2024-03-25T02:17:30;3.88;;;0.90;;
75718;SDS011;64340;48.534;-3.036;2024-03-25T02:19:56;3.85;;;1.23;;
75718;SDS011;64340;48.534;-3.036;2024-03-25T02:22:22;2.65;;;0.90;;
75718;SDS011;64340;48.534;-3.036;2024-03-25T02:24:49;2.83;;;1.00;;
75718;SDS011;64340;48.534;-3.036;2024-03-25T02:27:17;1.80;;;0.88;;
75718;SDS011;64340;48.534;-3.036;2024-03-25T02:29:43;1.88;;;0.80;;
75718;SDS011;64340;48.534;-3.036;2024-03-25T02:32:09;2.80;;;1.08;;
75718;SDS011;64340;48.534;-3.036;2024-03-25T02:34:39;4.05;;;0.88;;
75718;SDS011;64340;48.534;-3.036;2024-03-25T02:37:07;2.05;;;0.90;;
75718;SDS011;64340;48.534;-3.036;2024-03-25T02:39:34;2.90;;;0.95;;
75718;SDS011;64340;48.534;-3.036;2024-03-25T02:42:01;2.50;;;0.82;;
75718;SDS011;64340;48.534;-3.036;2024-03-25T02:44:26;3.08;;;1.33;;
75718;SDS011;64340;48.534;-3.036;2024-03-25T02:46:52;1.88;;;0.70;;
75718;SDS011;64340;48.534;-3.036;2024-03-25T02:49:19;3.47;;;1.00;;
75718;SDS011;64340;48.534;-3.036;2024-03-25T02:51:45;1.67;;;0.70;;
75718;SDS011;64340;48.534;-3.036;2024-03-25T02:54:11;2.78;;;0.63;;
75718;SDS011;64340;48.534;-3.036;2024-03-25T02:56:37;2.85;;;0.70;;
75718;SDS011;64340;48.534;-3.036;2024-03-25T02:59:02;4.97;;;1.00;;
75718;SDS011;64340;48.534;-3.036;2024-03-25T03:01:28;3.80;;;1.08;;
75718;SDS011;64340;48.534;-3.036;2024-03-25T03:03:54;2.10;;;0.82;;
75718;SDS011;64340;48.534;-3.036;2024-03-25T03:06:19;2.03;;;0.75;;
75718;SDS011;64340;48.534;-3.036;2024-03-25T03:08:45;2.10;;;0.80;;
75718;SDS011;64340;48.534;-3.036;2024-03-25T03:11:11;2.72;;;1.17;;
75718;SDS011;64340;48.534;-3.036;2024-03-25T03:13:37;1.67;;;0.80;;
75718;SDS011;64340;48.534;-3.036;2024-03-25T03:16:02;1.83;;;0.88;;
75718;SDS011;64340;48.534;-3.036;2024-03-25T03:18:28;2.22;;;0.70;;
75718;SDS011;64340;48.534;-3.036;2024-03-25T03:20:54;3.08;;;1.00;;
75718;SDS011;64340;48.534;-3.036;2024-03-25T03:23:23;4.43;;;1.02;;
75718;SDS011;64340;48.534;-3.036;2024-03-25T03:25:48;3.42;;;0.82;;
75718;SDS011;64340;48.534;-3.036;2024-03-25T03:28:14;4.13;;;1.17;;
75718;SDS011;64340;48.534;-3.036;2024-03-25T03:30:41;2.13;;;0.93;;
75718;SDS011;64340;48.534;-3.036;2024-03-25T03:33:07;1.77;;;0.80;;
75718;SDS011;64340;48.534;-3.036;2024-03-25T03:35:33;2.60;;;0.82;;
75718;SDS011;64340;48.534;-3.036;2024-03-25T03:37:59;3.45;;;0.70;;
75718;SDS011;64340;48.534;-3.036;2024-03-25T03:40:25;2.38;;;0.90;;
75718;SDS011;64340;48.534;-3.036;2024-03-25T03:42:50;2.67;;;0.90;;
75718;SDS011;64340;48.534;-3.036;2024-03-25T03:45:16;1.80;;;0.60;;
75718;SDS011;64340;48.534;-3.036;2024-03-25T03:47:42;3.40;;;0.90;;
75718;SDS011;64340;48.534;-3.036;2024-03-25T03:50:09;3.22;;;0.80;;
75718;SDS011;64340;48.534;-3.036;2024-03-25T03:52:35;2.15;;;0.80;;
75718;SDS011;64340;48.534;-3.036;2024-03-25T03:55:01;1.67;;;0.60;;
75718;SDS011;64340;48.534;-3.036;2024-03-25T03:57:26;2.50;;;0.80;;
75718;SDS011;64340;48.534;-3.036;2024-03-25T03:59:52;1.98;;;0.80;;
75718;SDS011;64340;48.534;-3.036;2024-03-25T04:02:18;2.65;;;0.80;;
75718;SDS011;64340;48.534;-3.036;2024-03-25T04:04:44;2.65;;;0.80;;
75718;SDS011;64340;48.534;-3.036;2024-03-25T04:07:09;2.95;;;0.70;;
75718;SDS011;64340;48.534;-3.036;2024-03-25T04:09:35;2.40;;;0.50;;
75718;SDS011;64340;48.534;-3.036;2024-03-25T04:12:01;2.60;;;0.80;;
75718;SDS011;64340;48.534;-3.036;2024-03-25T04:14:26;3.45;;;1.08;;
75718;SDS011;64340;48.534;-3.036;2024-03-25T04:16:52;4.18;;;0.80;;
75718;SDS011;64340;48.534;-3.036;2024-03-25T04:19:24;2.83;;;0.75;;
75718;SDS011;64340;48.534;-3.036;2024-03-25T04:21:52;1.75;;;0.57;;
75718;SDS011;64340;48.534;-3.036;2024-03-25T04:24:18;2.88;;;0.55;;
75718;SDS011;64340;48.534;-3.036;2024-03-25T04:26:44;2.60;;;0.77;;
75718;SDS011;64340;48.534;-3.036;2024-03-25T04:29:11;2.63;;;0.73;;
75718;SDS011;64340;48.534;-3.036;2024-03-25T04:31:36;4.07;;;1.05;;
75718;SDS011;64340;48.534;-3.036;2024-03-25T04:34:02;2.22;;;0.77;;
75718;SDS011;64340;48.534;-3.036;2024-03-25T04:36:29;3.85;;;0.65;;
75718;SDS011;64340;48.534;-3.036;2024-03-25T04:38:55;2.08;;;0.68;;
75718;SDS011;64340;48.534;-3.036;2024-03-25T04:41:22;2.80;;;0.85;;
75718;SDS011;64340;48.534;-3.036;2024-03-25T04:43:48;3.08;;;0.85;;
75718;SDS011;64340;48.534;-3.036;2024-03-25T04:46:13;2.55;;;0.75;;
75718;SDS011;64340;48.534;-3.036;2024-03-25T04:48:39;4.53;;;0.73;;
75718;SDS011;64340;48.534;-3.036;2024-03-25T04:51:05;2.40;;;0.80;;
75718;SDS011;64340;48.534;-3.036;2024-03-25T04:53:31;3.42;;;0.77;;
75718;SDS011;64340;48.534;-3.036;2024-03-25T04:55:57;3.65;;;0.88;;
75718;SDS011;64340;48.534;-3.036;2024-03-25T04:58:23;3.15;;;0.82;;
75718;SDS011;64340;48.534;-3.036;2024-03-25T05:00:49;2.78;;;0.95;;
75718;SDS011;64340;48.534;-3.036;2024-03-25T05:03:14;1.73;;;0.60;;
75718;SDS011;64340;48.534;-3.036;2024-03-25T05:05:40;3.88;;;0.95;;
75718;SDS011;64340;48.534;-3.036;2024-03-25T05:08:06;3.40;;;0.73;;
75718;SDS011;64340;48.534;-3.036;2024-03-25T05:10:32;1.95;;;0.63;;
75718;SDS011;64340;48.534;-3.036;2024-03-25T05:12:57;1.92;;;0.60;;
75718;SDS011;64340;48.534;-3.036;2024-03-25T05:15:23;2.97;;;0.80;;
75718;SDS011;64340;48.534;-3.036;2024-03-25T05:17:49;1.83;;;0.50;;
75718;SDS011;64340;48.534;-3.036;2024-03-25T05:20:14;2.42;;;0.60;;
75718;SDS011;64340;48.534;-3.036;2024-03-25T05:22:40;4.60;;;1.10;;
75718;SDS011;64340;48.534;-3.036;2024-03-25T05:25:06;3.85;;;1.00;;
75718;SDS011;64340;48.534;-3.036;2024-03-25T05:27:32;5.50;;;0.85;;
75718;SDS011;64340;48.534;-3.036;2024-03-25T05:29:58;3.47;;;1.10;;
75718;SDS011;64340;48.534;-3.036;2024-03-25T05:32:24;4.68;;;1.50;;
75718;SDS011;64340;48.534;-3.036;2024-03-25T05:34:50;3.88;;;0.80;;
75718;SDS011;64340;48.534;-3.036;2024-03-25T05:37:16;5.50;;;1.20;;
75718;SDS011;64340;48.534;-3.036;2024-03-25T05:39:41;2.10;;;1.00;;
75718;SDS011;64340;48.534;-3.036;2024-03-25T05:42:07;3.33;;;1.20;;
75718;SDS011;64340;48.534;-3.036;2024-03-25T05:44:33;3.47;;;0.82;;
75718;SDS011;64340;48.534;-3.036;2024-03-25T05:46:58;4.30;;;1.00;;
75718;SDS011;64340;48.534;-3.036;2024-03-25T05:49:24;3.08;;;0.77;;
75718;SDS011;64340;48.534;-3.036;2024-03-25T05:51:51;2.25;;;0.98;;
75718;SDS011;64340;48.534;-3.036;2024-03-25T05:54:16;3.92;;;0.88;;
75718;SDS011;64340;48.534;-3.036;2024-03-25T05:56:42;3.75;;;1.15;;
75718;SDS011;64340;48.534;-3.036;2024-03-25T05:59:08;6.35;;;1.67;;
75718;SDS011;64340;48.534;-3.036;2024-03-25T06:01:33;6.68;;;1.30;;
75718;SDS011;64340;48.534;-3.036;2024-03-25T06:04:02;6.78;;;1.42;;
75718;SDS011;64340;48.534;-3.036;2024-03-25T06:06:28;6.40;;;1.67;;
75718;SDS011;64340;48.534;-3.036;2024-03-25T06:08:54;6.03;;;1.65;;
75718;SDS011;64340;48.534;-3.036;2024-03-25T06:11:20;8.05;;;1.65;;
75718;SDS011;64340;48.534;-3.036;2024-03-25T06:13:46;9.23;;;1.70;;
75718;SDS011;64340;48.534;-3.036;2024-03-25T06:18:40;6.45;;;1.50;;
75718;SDS011;64340;48.534;-3.036;2024-03-25T06:21:06;5.85;;;1.75;;
75718;SDS011;64340;48.534;-3.036;2024-03-25T06:23:32;5.55;;;1.52;;
75718;SDS011;64340;48.534;-3.036;2024-03-25T06:25:58;4.68;;;1.25;;
75718;SDS011;64340;48.534;-3.036;2024-03-25T06:28:24;6.60;;;1.88;;
75718;SDS011;64340;48.534;-3.036;2024-03-25T06:30:50;7.45;;;1.48;;
75718;SDS011;64340;48.534;-3.036;2024-03-25T06:33:34;3.20;;;1.10;;
75718;SDS011;64340;48.534;-3.036;2024-03-25T06:36:20;5.10;;;1.38;;
75718;SDS011;64340;48.534;-3.036;2024-03-25T06:38:45;6.22;;;1.23;;
75718;SDS011;64340;48.534;-3.036;2024-03-25T06:41:11;5.40;;;1.15;;
75718;SDS011;64340;48.534;-3.036;2024-03-25T06:43:37;3.80;;;0.90;;
75718;SDS011;64340;48.534;-3.036;2024-03-25T06:46:03;5.97;;;1.52;;
75718;SDS011;64340;48.534;-3.036;2024-03-25T06:48:30;3.63;;;1.15;;
75718;SDS011;64340;48.534;-3.036;2024-03-25T06:50:57;5.70;;;1.20;;
75718;SDS011;64340;48.534;-3.036;2024-03-25T06:53:24;4.65;;;1.15;;
75718;SDS011;64340;48.534;-3.036;2024-03-25T06:55:53;5.00;;;1.00;;
75718;SDS011;64340;48.534;-3.036;2024-03-25T06:58:21;6.90;;;1.33;;
75718;SDS011;64340;48.534;-3.036;2024-03-25T07:00:48;6.18;;;1.40;;
75718;SDS011;64340;48.534;-3.036;2024-03-25T07:03:20;5.82;;;1.20;;
75718;SDS011;64340;48.534;-3.036;2024-03-25T07:05:50;5.55;;;1.13;;
75718;SDS011;64340;48.534;-3.036;2024-03-25T07:08:20;4.03;;;1.20;;
75718;SDS011;64340;48.534;-3.036;2024-03-25T07:10:46;2.97;;;0.95;;
75718;SDS011;64340;48.534;-3.036;2024-03-25T07:13:12;3.58;;;1.00;;
75718;SDS011;64340;48.534;-3.036;2024-03-25T07:15:38;5.95;;;1.08;;
75718;SDS011;64340;48.534;-3.036;2024-03-25T07:18:05;6.25;;;1.30;;
75718;SDS011;64340;48.534;-3.036;2024-03-25T07:20:31;3.58;;;1.00;;
75718;SDS011;64340;48.534;-3.036;2024-03-25T07:22:57;3.83;;;0.93;;
75718;SDS011;64340;48.534;-3.036;2024-03-25T07:25:23;4.75;;;1.15;;
75718;SDS011;64340;48.534;-3.036;2024-03-25T07:27:50;4.68;;;1.10;;
75718;SDS011;64340;48.534;-3.036;2024-03-25T07:30:16;3.97;;;1.20;;
75718;SDS011;64340;48.534;-3.036;2024-03-25T07:32:42;3.30;;;1.00;;
75718;SDS011;64340;48.534;-3.036;2024-03-25T07:35:10;5.90;;;1.30;;
75718;SDS011;64340;48.534;-3.036;2024-03-25T07:37:36;4.03;;;1.10;;
75718;SDS011;64340;48.534;-3.036;2024-03-25T07:40:02;5.68;;;0.95;;
75718;SDS011;64340;48.534;-3.036;2024-03-25T07:42:29;4.03;;;1.10;;
75718;SDS011;64340;48.534;-3.036;2024-03-25T07:44:55;5.50;;;1.33;;
75718;SDS011;64340;48.534;-3.036;2024-03-25T07:47:21;3.10;;;1.08;;
75718;SDS011;64340;48.534;-3.036;2024-03-25T07:49:47;5.13;;;1.30;;
75718;SDS011;64340;48.534;-3.036;2024-03-25T07:52:12;3.67;;;1.13;;
75718;SDS011;64340;48.534;-3.036;2024-03-25T07:54:39;3.97;;;1.33;;
75718;SDS011;64340;48.534;-3.036;2024-03-25T07:57:04;3.60;;;0.95;;
75718;SDS011;64340;48.534;-3.036;2024-03-25T07:59:30;5.72;;;1.33;;
75718;SDS011;64340;48.534;-3.036;2024-03-25T08:01:56;5.40;;;1.25;;
75718;SDS011;64340;48.534;-3.036;2024-03-25T08:04:21;5.32;;;1.27;;
75718;SDS011;64340;48.534;-3.036;2024-03-25T08:06:47;4.47;;;1.10;;
75718;SDS011;64340;48.534;-3.036;2024-03-25T08:09:13;4.53;;;0.80;;
75718;SDS011;64340;48.534;-3.036;2024-03-25T08:11:40;3.55;;;1.13;;
75718;SDS011;64340;48.534;-3.036;2024-03-25T08:14:09;5.50;;;1.00;;
75718;SDS011;64340;48.534;-3.036;2024-03-25T08:16:35;3.65;;;1.30;;
75718;SDS011;64340;48.534;-3.036;2024-03-25T08:19:00;5.38;;;1.40;;
75718;SDS011;64340;48.534;-3.036;2024-03-25T08:21:26;6.78;;;1.38;;
75718;SDS011;64340;48.534;-3.036;2024-03-25T08:23:52;6.00;;;1.45;;
75718;SDS011;64340;48.534;-3.036;2024-03-25T08:26:18;3.10;;;1.10;;
75718;SDS011;64340;48.534;-3.036;2024-03-25T08:28:44;4.60;;;1.33;;
75718;SDS011;64340;48.534;-3.036;2024-03-25T08:31:10;7.75;;;1.67;;
75718;SDS011;64340;48.534;-3.036;2024-03-25T08:33:35;5.45;;;1.60;;
75718;SDS011;64340;48.534;-3.036;2024-03-25T08:36:01;5.60;;;1.40;;
75718;SDS011;64340;48.534;-3.036;2024-03-25T08:38:28;5.25;;;1.50;;
75718;SDS011;64340;48.534;-3.036;2024-03-25T08:40:54;6.32;;;1.45;;
75718;SDS011;64340;48.534;-3.036;2024-03-25T08:43:20;5.07;;;1.60;;
75718;SDS011;64340;48.534;-3.036;2024-03-25T08:45:45;6.28;;;1.50;;
75718;SDS011;64340;48.534;-3.036;2024-03-25T08:48:11;6.85;;;2.05;;
75718;SDS011;64340;48.534;-3.036;2024-03-25T08:50:37;3.83;;;1.30;;
75718;SDS011;64340;48.534;-3.036;2024-03-25T08:53:03;3.70;;;1.23;;
75718;SDS011;64340;48.534;-3.036;2024-03-25T08:55:29;5.53;;;1.60;;
75718;SDS011;64340;48.534;-3.036;2024-03-25T08:57:56;4.13;;;1.42;;
75718;SDS011;64340;48.534;-3.036;2024-03-25T09:00:25;6.68;;;1.60;;
75718;SDS011;64340;48.534;-3.036;2024-03-25T09:02:55;6.80;;;1.50;;
75718;SDS011;64340;48.534;-3.036;2024-03-25T09:05:21;3.28;;;1.40;;
75718;SDS011;64340;48.534;-3.036;2024-03-25T09:07:50;4.13;;;1.48;;
75718;SDS011;64340;48.534;-3.036;2024-03-25T09:10:17;3.90;;;1.40;;
75718;SDS011;64340;48.534;-3.036;2024-03-25T09:13:02;4.47;;;1.50;;
75718;SDS011;64340;48.534;-3.036;2024-03-25T09:15:28;4.22;;;1.73;;
75718;SDS011;64340;48.534;-3.036;2024-03-25T09:17:54;6.00;;;2.05;;
75718;SDS011;64340;48.534;-3.036;2024-03-25T09:20:20;5.72;;;1.90;;
75718;SDS011;64340;48.534;-3.036;2024-03-25T09:22:47;5.75;;;1.30;;
75718;SDS011;64340;48.534;-3.036;2024-03-25T09:25:15;6.13;;;1.80;;
75718;SDS011;64340;48.534;-3.036;2024-03-25T09:27:48;4.03;;;1.33;;
75718;SDS011;64340;48.534;-3.036;2024-03-25T09:30:14;6.13;;;1.33;;
75718;SDS011;64340;48.534;-3.036;2024-03-25T09:32:41;6.82;;;1.92;;
75718;SDS011;64340;48.534;-3.036;2024-03-25T09:35:08;5.22;;;1.58;;
75718;SDS011;64340;48.534;-3.036;2024-03-25T09:37:37;6.72;;;1.35;;
75718;SDS011;64340;48.534;-3.036;2024-03-25T09:40:03;5.95;;;1.25;;
75718;SDS011;64340;48.534;-3.036;2024-03-25T09:42:40;7.03;;;1.48;;
75718;SDS011;64340;48.534;-3.036;2024-03-25T09:45:07;7.55;;;1.15;;
75718;SDS011;64340;48.534;-3.036;2024-03-25T09:47:35;3.70;;;1.15;;
75718;SDS011;64340;48.534;-3.036;2024-03-25T09:50:02;2.65;;;1.00;;
75718;SDS011;64340;48.534;-3.036;2024-03-25T09:52:31;3.60;;;0.93;;
75718;SDS011;64340;48.534;-3.036;2024-03-25T09:54:56;4.65;;;1.63;;
75718;SDS011;64340;48.534;-3.036;2024-03-25T09:57:22;4.05;;;1.02;;
75718;SDS011;64340;48.534;-3.036;2024-03-25T09:59:49;3.17;;;0.90;;
75718;SDS011;64340;48.534;-3.036;2024-03-25T10:02:16;4.00;;;1.17;;
75718;SDS011;64340;48.534;-3.036;2024-03-25T10:04:46;2.38;;;0.73;;
75718;SDS011;64340;48.534;-3.036;2024-03-25T10:07:21;2.67;;;0.80;;
75718;SDS011;64340;48.534;-3.036;2024-03-25T10:09:50;3.85;;;1.10;;
75718;SDS011;64340;48.534;-3.036;2024-03-25T10:12:16;2.20;;;0.70;;
75718;SDS011;64340;48.534;-3.036;2024-03-25T10:14:42;3.70;;;0.77;;
75718;SDS011;64340;48.534;-3.036;2024-03-25T10:17:08;3.97;;;1.00;;
75718;SDS011;64340;48.534;-3.036;2024-03-25T10:19:34;2.10;;;0.75;;
75718;SDS011;64340;48.534;-3.036;2024-03-25T10:22:01;2.30;;;0.82;;
75718;SDS011;64340;48.534;-3.036;2024-03-25T10:24:44;2.53;;;0.80;;
75718;SDS011;64340;48.534;-3.036;2024-03-25T10:27:31;3.65;;;0.88;;
75718;SDS011;64340;48.534;-3.036;2024-03-25T10:29:56;2.90;;;1.42;;
75718;SDS011;64340;48.534;-3.036;2024-03-25T10:32:22;3.55;;;0.70;;
75718;SDS011;64340;48.534;-3.036;2024-03-25T10:34:49;1.77;;;0.50;;
75718;SDS011;64340;48.534;-3.036;2024-03-25T10:37:15;3.80;;;0.80;;
75718;SDS011;64340;48.534;-3.036;2024-03-25T10:39:49;1.65;;;0.63;;
75718;SDS011;64340;48.534;-3.036;2024-03-25T10:42:20;1.73;;;0.50;;
75718;SDS011;64340;48.534;-3.036;2024-03-25T10:44:49;3.42;;;0.73;;
75718;SDS011;64340;48.534;-3.036;2024-03-25T10:47:19;2.75;;;0.93;;
75718;SDS011;64340;48.534;-3.036;2024-03-25T10:49:59;3.65;;;0.90;;
75718;SDS011;64340;48.534;-3.036;2024-03-25T10:52:29;5.50;;;1.42;;
75718;SDS011;64340;48.534;-3.036;2024-03-25T10:54:57;2.85;;;0.60;;
75718;SDS011;64340;48.534;-3.036;2024-03-25T10:57:24;3.78;;;0.82;;
75718;SDS011;64340;48.534;-3.036;2024-03-25T10:59:53;2.55;;;0.55;;
75718;SDS011;64340;48.534;-3.036;2024-03-25T11:02:22;3.55;;;0.70;;
75718;SDS011;64340;48.534;-3.036;2024-03-25T11:04:49;4.88;;;0.82;;
75718;SDS011;64340;48.534;-3.036;2024-03-25T11:07:16;2.95;;;0.60;;
75718;SDS011;64340;48.534;-3.036;2024-03-25T11:09:42;4.57;;;1.05;;
75718;SDS011;64340;48.534;-3.036;2024-03-25T11:12:11;3.67;;;0.60;;
75718;SDS011;64340;48.534;-3.036;2024-03-25T11:14:38;2.72;;;0.75;;
75718;SDS011;64340;48.534;-3.036;2024-03-25T11:17:16;5.20;;;0.70;;
75718;SDS011;64340;48.534;-3.036;2024-03-25T11:19:42;3.20;;;0.70;;
75718;SDS011;64340;48.534;-3.036;2024-03-25T11:22:08;1.63;;;0.60;;
75718;SDS011;64340;48.534;-3.036;2024-03-25T11:24:35;5.07;;;0.70;;
75718;SDS011;64340;48.534;-3.036;2024-03-25T11:27:02;3.22;;;0.60;;
75718;SDS011;64340;48.534;-3.036;2024-03-25T11:29:31;3.17;;;0.82;;
75718;SDS011;64340;48.534;-3.036;2024-03-25T11:31:56;4.32;;;0.82;;
75718;SDS011;64340;48.534;-3.036;2024-03-25T11:34:28;5.38;;;1.38;;
75718;SDS011;64340;48.534;-3.036;2024-03-25T11:36:54;5.35;;;0.82;;
75718;SDS011;64340;48.534;-3.036;2024-03-25T11:39:22;3.17;;;0.60;;
75718;SDS011;64340;48.534;-3.036;2024-03-25T11:41:48;4.90;;;1.98;;
75718;SDS011;64340;48.534;-3.036;2024-03-25T11:44:14;1.55;;;0.77;;
75718;SDS011;64340;48.534;-3.036;2024-03-25T11:46:40;1.10;;;0.40;;
75718;SDS011;64340;48.534;-3.036;2024-03-25T11:49:06;3.05;;;0.63;;
75718;SDS011;64340;48.534;-3.036;2024-03-25T11:51:40;2.50;;;0.57;;
75718;SDS011;64340;48.534;-3.036;2024-03-25T11:54:11;2.58;;;0.60;;
75718;SDS011;64340;48.534;-3.036;2024-03-25T11:56:37;2.72;;;0.60;;
75718;SDS011;64340;48.534;-3.036;2024-03-25T11:59:04;2.45;;;0.50;;
75718;SDS011;64340;48.534;-3.036;2024-03-25T12:01:30;2.03;;;0.50;;
75718;SDS011;64340;48.534;-3.036;2024-03-25T12:03:56;1.48;;;0.55;;
75718;SDS011;64340;48.534;-3.036;2024-03-25T12:06:22;2.13;;;0.70;;
75718;SDS011;64340;48.534;-3.036;2024-03-25T12:08:48;1.17;;;0.50;;
75718;SDS011;64340;48.534;-3.036;2024-03-25T12:11:33;3.40;;;0.55;;
75718;SDS011;64340;48.534;-3.036;2024-03-25T12:13:59;6.28;;;2.45;;
75718;SDS011;64340;48.534;-3.036;2024-03-25T12:16:26;8.20;;;2.13;;
75718;SDS011;64340;48.534;-3.036;2024-03-25T12:18:52;2.22;;;0.90;;
75718;SDS011;64340;48.534;-3.036;2024-03-25T12:21:19;2.85;;;1.08;;
75718;SDS011;64340;48.534;-3.036;2024-03-25T12:23:44;3.60;;;0.70;;
75718;SDS011;64340;48.534;-3.036;2024-03-25T12:26:12;3.38;;;1.00;;
75718;SDS011;64340;48.534;-3.036;2024-03-25T12:28:39;2.83;;;0.77;;
75718;SDS011;64340;48.534;-3.036;2024-03-25T12:31:08;2.97;;;1.13;;
75718;SDS011;64340;48.534;-3.036;2024-03-25T12:33:43;4.00;;;1.48;;
75718;SDS011;64340;48.534;-3.036;2024-03-25T12:36:11;3.03;;;1.00;;
75718;SDS011;64340;48.534;-3.036;2024-03-25T12:38:37;3.30;;;1.85;;
75718;SDS011;64340;48.534;-3.036;2024-03-25T12:41:07;5.07;;;1.27;;
75718;SDS011;64340;48.534;-3.036;2024-03-25T12:43:34;4.82;;;1.20;;
75718;SDS011;64340;48.534;-3.036;2024-03-25T12:46:01;4.90;;;1.02;;
75718;SDS011;64340;48.534;-3.036;2024-03-25T12:48:30;4.65;;;0.98;;
75718;SDS011;64340;48.534;-3.036;2024-03-25T12:50:56;4.65;;;1.13;;
75718;SDS011;64340;48.534;-3.036;2024-03-25T12:53:22;5.07;;;1.20;;
75718;SDS011;64340;48.534;-3.036;2024-03-25T12:55:48;4.03;;;1.38;;
75718;SDS011;64340;48.534;-3.036;2024-03-25T12:58:14;4.07;;;1.10;;
75718;SDS011;64340;48.534;-3.036;2024-03-25T13:00:40;2.65;;;0.90;;
75718;SDS011;64340;48.534;-3.036;2024-03-25T13:03:06;5.57;;;1.40;;
75718;SDS011;64340;48.534;-3.036;2024-03-25T13:05:33;4.80;;;0.93;;
75718;SDS011;64340;48.534;-3.036;2024-03-25T13:08:00;2.47;;;0.68;;
75718;SDS011;64340;48.534;-3.036;2024-03-25T13:10:26;3.83;;;0.80;;
75718;SDS011;64340;48.534;-3.036;2024-03-25T13:12:53;3.58;;;0.85;;
75718;SDS011;64340;48.534;-3.036;2024-03-25T13:15:19;4.15;;;0.70;;
75718;SDS011;64340;48.534;-3.036;2024-03-25T13:17:45;2.40;;;0.60;;
75718;SDS011;64340;48.534;-3.036;2024-03-25T13:20:11;2.25;;;0.60;;
75718;SDS011;64340;48.534;-3.036;2024-03-25T13:22:36;2.97;;;0.80;;
75718;SDS011;64340;48.534;-3.036;2024-03-25T13:25:03;2.33;;;0.50;;
75718;SDS011;64340;48.534;-3.036;2024-03-25T13:27:29;3.38;;;0.60;;
75718;SDS011;64340;48.534;-3.036;2024-03-25T13:29:54;1.52;;;0.65;;
75718;SDS011;64340;48.534;-3.036;2024-03-25T13:32:20;5.07;;;0.63;;
75718;SDS011;64340;48.534;-3.036;2024-03-25T13:34:48;3.47;;;0.60;;
75718;SDS011;64340;48.534;-3.036;2024-03-25T13:37:15;1.67;;;0.50;;
75718;SDS011;64340;48.534;-3.036;2024-03-25T13:39:40;5.85;;;0.70;;
75718;SDS011;64340;48.534;-3.036;2024-03-25T13:42:06;1.65;;;0.30;;
75718;SDS011;64340;48.534;-3.036;2024-03-25T13:44:32;2.25;;;0.57;;
75718;SDS011;64340;48.534;-3.036;2024-03-25T13:46:58;3.40;;;0.82;;
75718;SDS011;64340;48.534;-3.036;2024-03-25T13:49:23;2.53;;;0.50;;
75718;SDS011;64340;48.534;-3.036;2024-03-25T13:51:56;3.75;;;0.50;;
75718;SDS011;64340;48.534;-3.036;2024-03-25T13:54:27;1.15;;;0.30;;
75718;SDS011;64340;48.534;-3.036;2024-03-25T13:56:53;2.72;;;0.50;;
75718;SDS011;64340;48.534;-3.036;2024-03-25T13:59:19;2.20;;;0.50;;
75718;SDS011;64340;48.534;-3.036;2024-03-25T14:01:44;3.65;;;0.50;;
75718;SDS011;64340;48.534;-3.036;2024-03-25T14:04:10;1.35;;;0.40;;
75718;SDS011;64340;48.534;-3.036;2024-03-25T14:06:36;4.60;;;0.55;;
75718;SDS011;64340;48.534;-3.036;2024-03-25T14:09:02;3.08;;;0.60;;
75718;SDS011;64340;48.534;-3.036;2024-03-25T14:11:35;3.95;;;0.73;;
75718;SDS011;64340;48.534;-3.036;2024-03-25T14:14:01;3.58;;;0.63;;
75718;SDS011;64340;48.534;-3.036;2024-03-25T14:16:28;3.42;;;0.85;;
75718;SDS011;64340;48.534;-3.036;2024-03-25T14:18:54;3.08;;;0.60;;
75718;SDS011;64340;48.534;-3.036;2024-03-25T14:21:20;3.15;;;0.50;;
75718;SDS011;64340;48.534;-3.036;2024-03-25T14:23:46;2.88;;;0.60;;
75718;SDS011;64340;48.534;-3.036;2024-03-25T14:26:12;3.05;;;0.52;;
75718;SDS011;64340;48.534;-3.036;2024-03-25T14:28:41;3.03;;;0.65;;
75718;SDS011;64340;48.534;-3.036;2024-03-25T14:31:07;2.22;;;0.65;;
75718;SDS011;64340;48.534;-3.036;2024-03-25T14:33:33;2.47;;;0.60;;